sensor_id;sensor_type;location;lat;lon;timestamp;P1;durP1;ratioP1;P2;durP2;ratioP2
67595;SDS011;54410;48.694;8.934;2022-08-19T00:00:22;16.98;;;15.38;;
67595;SDS011;54410;48.694;8.934;2022-08-19T00:02:48;17.67;;;15.93;;
67595;SDS011;54410;48.694;8.934;2022-08-19T00:05:14;19.05;;;16.95;;
67595;SDS011;54410;48.694;8.934;2022-08-19T00:07:42;18.83;;;16.90;;
67595;SDS011;54410;48.694;8.934;2022-08-19T00:10:09;18.48;;;16.25;;
67595;SDS011;54410;48.694;8.934;2022-08-19T00:12:35;17.73;;;15.57;;
67595;SDS011;54410;48.694;8.934;2022-08-19T00:15:03;18.80;;;15.85;;
67595;SDS011;54410;48.694;8.934;2022-08-19T00:17:30;18.75;;;16.67;;
67595;SDS011;54410;48.694;8.934;2022-08-19T00:19:56;17.83;;;16.10;;
67595;SDS011;54410;48.694;8.934;2022-08-19T00:22:21;17.45;;;15.70;;
67595;SDS011;54410;48.694;8.934;2022-08-19T00:24:47;21.83;;;17.45;;
67595;SDS011;54410;48.694;8.934;2022-08-19T00:27:13;18.00;;;16.10;;
67595;SDS011;54410;48.694;8.934;2022-08-19T00:29:40;18.58;;;16.77;;
67595;SDS011;54410;48.694;8.934;2022-08-19T00:32:06;19.25;;;16.83;;
67595;SDS011;54410;48.694;8.934;2022-08-19T00:34:32;19.50;;;17.40;;
67595;SDS011;54410;48.694;8.934;2022-08-19T00:36:58;19.95;;;17.95;;
67595;SDS011;54410;48.694;8.934;2022-08-19T00:39:24;19.60;;;17.23;;
67595;SDS011;54410;48.694;8.934;2022-08-19T00:41:50;19.95;;;17.63;;
67595;SDS011;54410;48.694;8.934;2022-08-19T00:44:19;21.48;;;17.77;;
67595;SDS011;54410;48.694;8.934;2022-08-19T00:46:47;19.58;;;17.40;;
67595;SDS011;54410;48.694;8.934;2022-08-19T00:49:15;20.25;;;17.58;;
67595;SDS011;54410;48.694;8.934;2022-08-19T00:51:42;21.10;;;18.20;;
67595;SDS011;54410;48.694;8.934;2022-08-19T00:54:09;19.20;;;16.63;;
67595;SDS011;54410;48.694;8.934;2022-08-19T00:56:36;20.30;;;17.77;;
67595;SDS011;54410;48.694;8.934;2022-08-19T00:59:02;18.48;;;16.58;;
67595;SDS011;54410;48.694;8.934;2022-08-19T01:01:35;19.45;;;17.30;;
67595;SDS011;54410;48.694;8.934;2022-08-19T01:04:01;19.88;;;17.00;;
67595;SDS011;54410;48.694;8.934;2022-08-19T01:06:27;19.58;;;17.50;;
67595;SDS011;54410;48.694;8.934;2022-08-19T01:08:54;18.95;;;17.05;;
67595;SDS011;54410;48.694;8.934;2022-08-19T01:11:20;23.13;;;17.30;;
67595;SDS011;54410;48.694;8.934;2022-08-19T01:13:47;19.67;;;17.58;;
67595;SDS011;54410;48.694;8.934;2022-08-19T01:16:14;21.40;;;18.73;;
67595;SDS011;54410;48.694;8.934;2022-08-19T01:18:41;21.58;;;18.65;;
67595;SDS011;54410;48.694;8.934;2022-08-19T01:21:10;22.92;;;18.30;;
67595;SDS011;54410;48.694;8.934;2022-08-19T01:23:36;21.05;;;18.75;;
67595;SDS011;54410;48.694;8.934;2022-08-19T01:26:10;19.90;;;17.90;;
67595;SDS011;54410;48.694;8.934;2022-08-19T01:28:36;20.02;;;17.98;;
67595;SDS011;54410;48.694;8.934;2022-08-19T01:31:03;20.08;;;17.98;;
67595;SDS011;54410;48.694;8.934;2022-08-19T01:33:29;21.38;;;18.60;;
67595;SDS011;54410;48.694;8.934;2022-08-19T01:36:22;21.23;;;18.95;;
67595;SDS011;54410;48.694;8.934;2022-08-19T01:39:03;23.75;;;19.98;;
67595;SDS011;54410;48.694;8.934;2022-08-19T01:41:30;21.35;;;19.13;;
67595;SDS011;54410;48.694;8.934;2022-08-19T01:43:56;21.95;;;19.65;;
67595;SDS011;54410;48.694;8.934;2022-08-19T01:46:22;21.23;;;19.02;;
67595;SDS011;54410;48.694;8.934;2022-08-19T01:48:48;21.60;;;18.90;;
67595;SDS011;54410;48.694;8.934;2022-08-19T01:51:14;21.27;;;19.08;;
67595;SDS011;54410;48.694;8.934;2022-08-19T01:53:40;21.67;;;19.40;;
67595;SDS011;54410;48.694;8.934;2022-08-19T01:56:07;21.48;;;19.27;;
67595;SDS011;54410;48.694;8.934;2022-08-19T01:58:35;20.38;;;18.27;;
67595;SDS011;54410;48.694;8.934;2022-08-19T02:01:03;23.67;;;21.15;;
67595;SDS011;54410;48.694;8.934;2022-08-19T02:03:32;25.50;;;20.65;;
67595;SDS011;54410;48.694;8.934;2022-08-19T02:06:00;23.13;;;20.60;;
67595;SDS011;54410;48.694;8.934;2022-08-19T02:08:27;23.33;;;19.98;;
67595;SDS011;54410;48.694;8.934;2022-08-19T02:10:53;23.70;;;20.95;;
67595;SDS011;54410;48.694;8.934;2022-08-19T02:13:19;23.33;;;21.08;;
67595;SDS011;54410;48.694;8.934;2022-08-19T02:15:46;23.20;;;20.33;;
67595;SDS011;54410;48.694;8.934;2022-08-19T02:18:12;23.73;;;21.20;;
67595;SDS011;54410;48.694;8.934;2022-08-19T02:20:39;22.88;;;20.48;;
67595;SDS011;54410;48.694;8.934;2022-08-19T02:23:05;24.50;;;20.38;;
67595;SDS011;54410;48.694;8.934;2022-08-19T02:25:31;24.95;;;22.23;;
67595;SDS011;54410;48.694;8.934;2022-08-19T02:27:58;23.48;;;20.80;;
67595;SDS011;54410;48.694;8.934;2022-08-19T02:30:24;25.33;;;22.55;;
67595;SDS011;54410;48.694;8.934;2022-08-19T02:32:51;24.23;;;20.48;;
67595;SDS011;54410;48.694;8.934;2022-08-19T02:35:17;22.60;;;20.20;;
67595;SDS011;54410;48.694;8.934;2022-08-19T02:37:43;25.08;;;22.15;;
67595;SDS011;54410;48.694;8.934;2022-08-19T02:40:28;23.98;;;21.45;;
67595;SDS011;54410;48.694;8.934;2022-08-19T02:42:54;24.20;;;20.65;;
67595;SDS011;54410;48.694;8.934;2022-08-19T02:45:20;24.48;;;22.02;;
67595;SDS011;54410;48.694;8.934;2022-08-19T02:47:47;24.27;;;21.77;;
67595;SDS011;54410;48.694;8.934;2022-08-19T02:50:13;25.30;;;22.40;;
67595;SDS011;54410;48.694;8.934;2022-08-19T02:52:39;25.83;;;22.50;;
67595;SDS011;54410;48.694;8.934;2022-08-19T02:55:05;24.33;;;21.73;;
67595;SDS011;54410;48.694;8.934;2022-08-19T02:57:31;25.92;;;23.13;;
67595;SDS011;54410;48.694;8.934;2022-08-19T02:59:58;25.92;;;22.80;;
67595;SDS011;54410;48.694;8.934;2022-08-19T03:02:23;25.88;;;22.23;;
67595;SDS011;54410;48.694;8.934;2022-08-19T03:04:50;24.25;;;21.60;;
67595;SDS011;54410;48.694;8.934;2022-08-19T03:07:16;25.42;;;22.80;;
67595;SDS011;54410;48.694;8.934;2022-08-19T03:09:43;26.42;;;22.38;;
67595;SDS011;54410;48.694;8.934;2022-08-19T03:12:09;25.52;;;22.83;;
67595;SDS011;54410;48.694;8.934;2022-08-19T03:14:36;27.73;;;24.27;;
67595;SDS011;54410;48.694;8.934;2022-08-19T03:17:02;25.98;;;23.23;;
67595;SDS011;54410;48.694;8.934;2022-08-19T03:19:29;27.88;;;24.30;;
67595;SDS011;54410;48.694;8.934;2022-08-19T03:21:56;28.13;;;23.70;;
67595;SDS011;54410;48.694;8.934;2022-08-19T03:24:23;26.95;;;23.42;;
67595;SDS011;54410;48.694;8.934;2022-08-19T03:26:51;27.27;;;24.38;;
67595;SDS011;54410;48.694;8.934;2022-08-19T03:29:17;27.00;;;24.20;;
67595;SDS011;54410;48.694;8.934;2022-08-19T03:31:43;28.98;;;25.15;;
67595;SDS011;54410;48.694;8.934;2022-08-19T03:34:10;28.58;;;25.48;;
67595;SDS011;54410;48.694;8.934;2022-08-19T03:36:37;27.70;;;24.80;;
67595;SDS011;54410;48.694;8.934;2022-08-19T03:39:03;31.58;;;28.15;;
67595;SDS011;54410;48.694;8.934;2022-08-19T03:41:30;29.23;;;25.40;;
67595;SDS011;54410;48.694;8.934;2022-08-19T03:43:57;30.52;;;27.23;;
67595;SDS011;54410;48.694;8.934;2022-08-19T03:46:25;33.25;;;26.33;;
67595;SDS011;54410;48.694;8.934;2022-08-19T03:48:52;30.67;;;27.17;;
67595;SDS011;54410;48.694;8.934;2022-08-19T03:51:20;29.45;;;26.33;;
67595;SDS011;54410;48.694;8.934;2022-08-19T03:53:46;31.10;;;27.88;;
67595;SDS011;54410;48.694;8.934;2022-08-19T03:56:13;31.05;;;27.67;;
67595;SDS011;54410;48.694;8.934;2022-08-19T03:58:39;30.80;;;27.58;;
67595;SDS011;54410;48.694;8.934;2022-08-19T04:01:09;31.60;;;28.25;;
67595;SDS011;54410;48.694;8.934;2022-08-19T04:03:35;31.05;;;27.80;;
67595;SDS011;54410;48.694;8.934;2022-08-19T04:06:18;31.75;;;28.35;;
67595;SDS011;54410;48.694;8.934;2022-08-19T04:08:46;31.80;;;27.88;;
67595;SDS011;54410;48.694;8.934;2022-08-19T04:11:13;35.83;;;28.67;;
67595;SDS011;54410;48.694;8.934;2022-08-19T04:13:40;33.80;;;28.63;;
67595;SDS011;54410;48.694;8.934;2022-08-19T04:16:08;32.47;;;28.63;;
67595;SDS011;54410;48.694;8.934;2022-08-19T04:18:35;32.03;;;28.23;;
67595;SDS011;54410;48.694;8.934;2022-08-19T04:21:02;32.70;;;29.30;;
67595;SDS011;54410;48.694;8.934;2022-08-19T04:23:28;35.15;;;30.20;;
67595;SDS011;54410;48.694;8.934;2022-08-19T04:25:54;32.28;;;28.77;;
67595;SDS011;54410;48.694;8.934;2022-08-19T04:28:20;34.05;;;29.90;;
67595;SDS011;54410;48.694;8.934;2022-08-19T04:30:47;33.22;;;29.58;;
67595;SDS011;54410;48.694;8.934;2022-08-19T04:33:16;33.30;;;29.65;;
67595;SDS011;54410;48.694;8.934;2022-08-19T04:35:44;37.15;;;29.38;;
67595;SDS011;54410;48.694;8.934;2022-08-19T04:38:12;33.60;;;29.35;;
67595;SDS011;54410;48.694;8.934;2022-08-19T04:40:41;32.60;;;29.10;;
67595;SDS011;54410;48.694;8.934;2022-08-19T04:43:26;31.77;;;28.38;;
67595;SDS011;54410;48.694;8.934;2022-08-19T04:45:52;32.13;;;28.15;;
67595;SDS011;54410;48.694;8.934;2022-08-19T04:48:18;33.03;;;29.52;;
67595;SDS011;54410;48.694;8.934;2022-08-19T04:50:50;32.88;;;29.30;;
67595;SDS011;54410;48.694;8.934;2022-08-19T04:53:26;33.67;;;30.02;;
67595;SDS011;54410;48.694;8.934;2022-08-19T04:55:56;33.03;;;29.42;;
67595;SDS011;54410;48.694;8.934;2022-08-19T04:58:27;32.80;;;29.27;;
67595;SDS011;54410;48.694;8.934;2022-08-19T05:00:53;33.05;;;27.92;;
67595;SDS011;54410;48.694;8.934;2022-08-19T05:03:20;31.88;;;28.63;;
67595;SDS011;54410;48.694;8.934;2022-08-19T05:05:46;33.25;;;29.73;;
67595;SDS011;54410;48.694;8.934;2022-08-19T05:08:20;33.53;;;29.00;;
67595;SDS011;54410;48.694;8.934;2022-08-19T05:10:50;33.90;;;29.73;;
67595;SDS011;54410;48.694;8.934;2022-08-19T05:13:17;33.88;;;30.27;;
67595;SDS011;54410;48.694;8.934;2022-08-19T05:15:43;33.05;;;29.30;;
67595;SDS011;54410;48.694;8.934;2022-08-19T05:18:10;31.30;;;27.90;;
67595;SDS011;54410;48.694;8.934;2022-08-19T05:20:56;33.63;;;29.60;;
67595;SDS011;54410;48.694;8.934;2022-08-19T05:23:40;34.67;;;28.48;;
67595;SDS011;54410;48.694;8.934;2022-08-19T05:26:06;32.58;;;29.00;;
67595;SDS011;54410;48.694;8.934;2022-08-19T05:28:34;30.63;;;27.30;;
67595;SDS011;54410;48.694;8.934;2022-08-19T05:31:00;32.80;;;28.85;;
67595;SDS011;54410;48.694;8.934;2022-08-19T05:33:25;30.35;;;27.02;;
67595;SDS011;54410;48.694;8.934;2022-08-19T05:35:52;32.03;;;28.58;;
67595;SDS011;54410;48.694;8.934;2022-08-19T05:38:18;33.17;;;28.27;;
67595;SDS011;54410;48.694;8.934;2022-08-19T05:40:45;31.50;;;27.92;;
67595;SDS011;54410;48.694;8.934;2022-08-19T05:43:11;32.72;;;29.13;;
67595;SDS011;54410;48.694;8.934;2022-08-19T05:45:40;30.80;;;27.63;;
67595;SDS011;54410;48.694;8.934;2022-08-19T05:48:07;31.75;;;28.42;;
67595;SDS011;54410;48.694;8.934;2022-08-19T05:50:36;35.22;;;27.70;;
67595;SDS011;54410;48.694;8.934;2022-08-19T05:53:02;31.90;;;28.48;;
67595;SDS011;54410;48.694;8.934;2022-08-19T05:55:28;33.80;;;26.60;;
67595;SDS011;54410;48.694;8.934;2022-08-19T05:57:54;30.27;;;27.08;;
67595;SDS011;54410;48.694;8.934;2022-08-19T06:00:20;30.52;;;26.85;;
67595;SDS011;54410;48.694;8.934;2022-08-19T06:02:46;34.15;;;30.58;;
67595;SDS011;54410;48.694;8.934;2022-08-19T06:05:12;32.75;;;29.25;;
67595;SDS011;54410;48.694;8.934;2022-08-19T06:07:38;34.95;;;29.35;;
67595;SDS011;54410;48.694;8.934;2022-08-19T06:10:05;31.27;;;27.98;;
67595;SDS011;54410;48.694;8.934;2022-08-19T06:12:32;33.28;;;29.67;;
67595;SDS011;54410;48.694;8.934;2022-08-19T06:15:06;32.92;;;29.25;;
67595;SDS011;54410;48.694;8.934;2022-08-19T06:17:34;32.50;;;28.58;;
67595;SDS011;54410;48.694;8.934;2022-08-19T06:20:00;34.20;;;29.35;;
67595;SDS011;54410;48.694;8.934;2022-08-19T06:22:26;32.78;;;29.23;;
67595;SDS011;54410;48.694;8.934;2022-08-19T06:24:53;31.55;;;28.15;;
67595;SDS011;54410;48.694;8.934;2022-08-19T06:27:19;31.05;;;27.73;;
67595;SDS011;54410;48.694;8.934;2022-08-19T06:29:45;30.88;;;27.63;;
67595;SDS011;54410;48.694;8.934;2022-08-19T06:32:13;31.23;;;27.73;;
67595;SDS011;54410;48.694;8.934;2022-08-19T06:34:41;29.90;;;26.70;;
67595;SDS011;54410;48.694;8.934;2022-08-19T06:37:07;30.60;;;27.17;;
67595;SDS011;54410;48.694;8.934;2022-08-19T06:39:35;30.35;;;26.23;;
67595;SDS011;54410;48.694;8.934;2022-08-19T06:42:03;29.67;;;26.42;;
67595;SDS011;54410;48.694;8.934;2022-08-19T06:44:33;29.73;;;26.73;;
67595;SDS011;54410;48.694;8.934;2022-08-19T06:47:01;28.27;;;24.58;;
67595;SDS011;54410;48.694;8.934;2022-08-19T06:49:27;27.90;;;25.10;;
67595;SDS011;54410;48.694;8.934;2022-08-19T06:51:56;29.33;;;26.20;;
67595;SDS011;54410;48.694;8.934;2022-08-19T06:54:23;30.60;;;26.48;;
67595;SDS011;54410;48.694;8.934;2022-08-19T06:56:49;27.98;;;24.65;;
67595;SDS011;54410;48.694;8.934;2022-08-19T06:59:16;29.27;;;26.27;;
67595;SDS011;54410;48.694;8.934;2022-08-19T07:01:44;29.77;;;25.95;;
67595;SDS011;54410;48.694;8.934;2022-08-19T07:04:12;27.30;;;24.40;;
67595;SDS011;54410;48.694;8.934;2022-08-19T07:06:38;28.23;;;25.35;;
67595;SDS011;54410;48.694;8.934;2022-08-19T07:09:05;27.73;;;24.88;;
67595;SDS011;54410;48.694;8.934;2022-08-19T07:11:31;27.27;;;23.58;;
67595;SDS011;54410;48.694;8.934;2022-08-19T07:13:57;27.52;;;24.52;;
67595;SDS011;54410;48.694;8.934;2022-08-19T07:16:23;27.20;;;24.35;;
67595;SDS011;54410;48.694;8.934;2022-08-19T07:18:50;26.52;;;23.73;;
67595;SDS011;54410;48.694;8.934;2022-08-19T07:21:20;27.88;;;24.98;;
67595;SDS011;54410;48.694;8.934;2022-08-19T07:23:54;26.40;;;23.70;;
67595;SDS011;54410;48.694;8.934;2022-08-19T07:26:22;27.98;;;24.42;;
67595;SDS011;54410;48.694;8.934;2022-08-19T07:28:51;26.73;;;24.02;;
67595;SDS011;54410;48.694;8.934;2022-08-19T07:31:18;27.70;;;24.58;;
67595;SDS011;54410;48.694;8.934;2022-08-19T07:33:46;26.77;;;23.90;;
67595;SDS011;54410;48.694;8.934;2022-08-19T07:36:14;29.80;;;22.75;;
67595;SDS011;54410;48.694;8.934;2022-08-19T07:38:43;27.80;;;23.83;;
67595;SDS011;54410;48.694;8.934;2022-08-19T07:41:11;26.15;;;23.02;;
67595;SDS011;54410;48.694;8.934;2022-08-19T07:43:38;26.45;;;23.77;;
67595;SDS011;54410;48.694;8.934;2022-08-19T07:46:04;26.23;;;22.05;;
67595;SDS011;54410;48.694;8.934;2022-08-19T07:48:30;26.77;;;24.00;;
67595;SDS011;54410;48.694;8.934;2022-08-19T07:50:57;26.90;;;24.17;;
67595;SDS011;54410;48.694;8.934;2022-08-19T07:53:27;26.90;;;24.20;;
67595;SDS011;54410;48.694;8.934;2022-08-19T07:55:53;25.50;;;23.00;;
67595;SDS011;54410;48.694;8.934;2022-08-19T07:58:20;24.17;;;21.65;;
67595;SDS011;54410;48.694;8.934;2022-08-19T08:00:47;25.85;;;23.00;;
67595;SDS011;54410;48.694;8.934;2022-08-19T08:03:15;25.85;;;23.25;;
67595;SDS011;54410;48.694;8.934;2022-08-19T08:05:41;25.27;;;22.63;;
67595;SDS011;54410;48.694;8.934;2022-08-19T08:08:26;26.00;;;23.17;;
67595;SDS011;54410;48.694;8.934;2022-08-19T08:11:11;24.38;;;21.75;;
67595;SDS011;54410;48.694;8.934;2022-08-19T08:13:37;23.77;;;21.25;;
67595;SDS011;54410;48.694;8.934;2022-08-19T08:16:06;23.67;;;21.15;;
67595;SDS011;54410;48.694;8.934;2022-08-19T08:18:34;23.35;;;20.70;;
67595;SDS011;54410;48.694;8.934;2022-08-19T08:21:06;26.08;;;22.17;;
67595;SDS011;54410;48.694;8.934;2022-08-19T08:23:33;24.13;;;21.58;;
67595;SDS011;54410;48.694;8.934;2022-08-19T08:25:59;24.67;;;22.25;;
67595;SDS011;54410;48.694;8.934;2022-08-19T08:28:27;25.30;;;22.60;;
67595;SDS011;54410;48.694;8.934;2022-08-19T08:30:53;25.33;;;22.75;;
67595;SDS011;54410;48.694;8.934;2022-08-19T08:33:21;24.63;;;22.13;;
67595;SDS011;54410;48.694;8.934;2022-08-19T08:35:48;24.15;;;21.77;;
67595;SDS011;54410;48.694;8.934;2022-08-19T08:38:14;24.35;;;21.83;;
67595;SDS011;54410;48.694;8.934;2022-08-19T08:43:17;23.45;;;20.85;;
67595;SDS011;54410;48.694;8.934;2022-08-19T08:45:47;25.02;;;21.17;;
67595;SDS011;54410;48.694;8.934;2022-08-19T08:48:30;23.77;;;20.80;;
67595;SDS011;54410;48.694;8.934;2022-08-19T08:50:58;23.33;;;20.92;;
67595;SDS011;54410;48.694;8.934;2022-08-19T08:53:25;23.45;;;21.05;;
67595;SDS011;54410;48.694;8.934;2022-08-19T08:55:51;22.08;;;19.88;;
67595;SDS011;54410;48.694;8.934;2022-08-19T08:58:31;22.58;;;20.20;;
67595;SDS011;54410;48.694;8.934;2022-08-19T09:01:08;24.25;;;21.77;;
67595;SDS011;54410;48.694;8.934;2022-08-19T09:03:36;24.38;;;21.80;;
67595;SDS011;54410;48.694;8.934;2022-08-19T09:06:04;24.33;;;20.70;;
67595;SDS011;54410;48.694;8.934;2022-08-19T09:08:47;23.73;;;20.42;;
67595;SDS011;54410;48.694;8.934;2022-08-19T09:11:18;24.02;;;21.58;;
67595;SDS011;54410;48.694;8.934;2022-08-19T09:13:50;22.88;;;20.50;;
67595;SDS011;54410;48.694;8.934;2022-08-19T09:16:20;23.35;;;21.20;;
67595;SDS011;54410;48.694;8.934;2022-08-19T09:18:52;24.88;;;22.25;;
67595;SDS011;54410;48.694;8.934;2022-08-19T09:21:20;26.90;;;21.90;;
67595;SDS011;54410;48.694;8.934;2022-08-19T09:23:47;23.85;;;21.25;;
67595;SDS011;54410;48.694;8.934;2022-08-19T09:26:15;21.65;;;19.60;;
67595;SDS011;54410;48.694;8.934;2022-08-19T09:28:42;23.88;;;21.38;;
67595;SDS011;54410;48.694;8.934;2022-08-19T09:31:09;24.02;;;21.63;;
67595;SDS011;54410;48.694;8.934;2022-08-19T09:33:36;23.98;;;21.48;;
67595;SDS011;54410;48.694;8.934;2022-08-19T09:36:03;26.65;;;20.13;;
67595;SDS011;54410;48.694;8.934;2022-08-19T09:38:31;23.33;;;20.67;;
67595;SDS011;54410;48.694;8.934;2022-08-19T09:41:01;23.45;;;21.20;;
67595;SDS011;54410;48.694;8.934;2022-08-19T09:43:27;23.08;;;20.83;;
67595;SDS011;54410;48.694;8.934;2022-08-19T09:45:53;21.98;;;19.83;;
67595;SDS011;54410;48.694;8.934;2022-08-19T09:48:19;22.42;;;20.23;;
67595;SDS011;54410;48.694;8.934;2022-08-19T09:50:46;23.33;;;20.95;;
67595;SDS011;54410;48.694;8.934;2022-08-19T09:53:11;22.42;;;20.10;;
67595;SDS011;54410;48.694;8.934;2022-08-19T09:55:41;22.77;;;20.65;;
67595;SDS011;54410;48.694;8.934;2022-08-19T09:58:07;21.65;;;19.58;;
67595;SDS011;54410;48.694;8.934;2022-08-19T10:00:33;22.48;;;18.70;;
67595;SDS011;54410;48.694;8.934;2022-08-19T10:02:59;22.13;;;19.83;;
67595;SDS011;54410;48.694;8.934;2022-08-19T10:05:25;20.90;;;18.75;;
67595;SDS011;54410;48.694;8.934;2022-08-19T10:08:10;20.92;;;18.73;;
67595;SDS011;54410;48.694;8.934;2022-08-19T10:10:36;21.50;;;18.08;;
67595;SDS011;54410;48.694;8.934;2022-08-19T10:13:02;19.83;;;17.92;;
67595;SDS011;54410;48.694;8.934;2022-08-19T10:15:28;19.85;;;17.77;;
67595;SDS011;54410;48.694;8.934;2022-08-19T10:17:55;18.42;;;16.58;;
67595;SDS011;54410;48.694;8.934;2022-08-19T10:20:21;22.52;;;18.13;;
67595;SDS011;54410;48.694;8.934;2022-08-19T10:22:47;21.13;;;18.85;;
67595;SDS011;54410;48.694;8.934;2022-08-19T10:25:13;21.20;;;16.50;;
67595;SDS011;54410;48.694;8.934;2022-08-19T10:27:41;17.65;;;15.98;;
67595;SDS011;54410;48.694;8.934;2022-08-19T10:30:07;18.00;;;16.25;;
67595;SDS011;54410;48.694;8.934;2022-08-19T10:32:34;16.13;;;14.63;;
67595;SDS011;54410;48.694;8.934;2022-08-19T10:35:01;17.65;;;14.88;;
67595;SDS011;54410;48.694;8.934;2022-08-19T10:37:28;16.08;;;14.63;;
67595;SDS011;54410;48.694;8.934;2022-08-19T10:39:55;14.93;;;13.45;;
67595;SDS011;54410;48.694;8.934;2022-08-19T10:42:21;14.98;;;13.43;;
67595;SDS011;54410;48.694;8.934;2022-08-19T10:44:47;14.23;;;12.82;;
67595;SDS011;54410;48.694;8.934;2022-08-19T10:47:13;13.40;;;12.10;;
67595;SDS011;54410;48.694;8.934;2022-08-19T10:49:40;13.18;;;11.88;;
67595;SDS011;54410;48.694;8.934;2022-08-19T10:52:26;14.25;;;12.75;;
67595;SDS011;54410;48.694;8.934;2022-08-19T10:54:59;14.15;;;12.23;;
67595;SDS011;54410;48.694;8.934;2022-08-19T10:57:43;15.63;;;14.13;;
67595;SDS011;54410;48.694;8.934;2022-08-19T11:00:09;15.88;;;14.23;;
67595;SDS011;54410;48.694;8.934;2022-08-19T11:02:35;14.20;;;12.77;;
67595;SDS011;54410;48.694;8.934;2022-08-19T11:05:02;15.45;;;13.85;;
67595;SDS011;54410;48.694;8.934;2022-08-19T11:07:28;15.40;;;13.02;;
67595;SDS011;54410;48.694;8.934;2022-08-19T11:09:54;14.73;;;12.85;;
67595;SDS011;54410;48.694;8.934;2022-08-19T11:12:20;14.77;;;13.32;;
67595;SDS011;54410;48.694;8.934;2022-08-19T11:14:46;12.90;;;11.63;;
67595;SDS011;54410;48.694;8.934;2022-08-19T11:17:14;13.73;;;11.18;;
67595;SDS011;54410;48.694;8.934;2022-08-19T11:19:41;13.15;;;11.98;;
67595;SDS011;54410;48.694;8.934;2022-08-19T11:22:08;12.98;;;11.50;;
67595;SDS011;54410;48.694;8.934;2022-08-19T11:24:34;13.23;;;11.88;;
67595;SDS011;54410;48.694;8.934;2022-08-19T11:27:02;12.93;;;11.63;;
67595;SDS011;54410;48.694;8.934;2022-08-19T11:29:30;13.13;;;11.73;;
67595;SDS011;54410;48.694;8.934;2022-08-19T11:31:56;12.40;;;11.25;;
67595;SDS011;54410;48.694;8.934;2022-08-19T11:34:23;12.68;;;11.48;;
67595;SDS011;54410;48.694;8.934;2022-08-19T11:36:52;13.45;;;11.35;;
67595;SDS011;54410;48.694;8.934;2022-08-19T11:39:20;12.60;;;11.05;;
67595;SDS011;54410;48.694;8.934;2022-08-19T11:41:46;11.23;;;10.13;;
67595;SDS011;54410;48.694;8.934;2022-08-19T11:44:12;11.25;;;10.15;;
67595;SDS011;54410;48.694;8.934;2022-08-19T11:46:39;11.50;;;10.25;;
67595;SDS011;54410;48.694;8.934;2022-08-19T11:49:06;9.98;;;9.18;;
67595;SDS011;54410;48.694;8.934;2022-08-19T11:51:35;10.65;;;9.57;;
67595;SDS011;54410;48.694;8.934;2022-08-19T11:54:01;10.27;;;9.32;;
67595;SDS011;54410;48.694;8.934;2022-08-19T11:56:30;10.48;;;9.55;;
67595;SDS011;54410;48.694;8.934;2022-08-19T11:58:56;10.77;;;9.57;;
67595;SDS011;54410;48.694;8.934;2022-08-19T12:01:23;10.02;;;9.02;;
67595;SDS011;54410;48.694;8.934;2022-08-19T12:03:50;11.90;;;9.75;;
67595;SDS011;54410;48.694;8.934;2022-08-19T12:06:19;10.27;;;9.23;;
67595;SDS011;54410;48.694;8.934;2022-08-19T12:08:48;9.95;;;9.05;;
67595;SDS011;54410;48.694;8.934;2022-08-19T12:11:14;10.32;;;9.40;;
67595;SDS011;54410;48.694;8.934;2022-08-19T12:13:41;10.13;;;8.23;;
67595;SDS011;54410;48.694;8.934;2022-08-19T12:16:14;14.93;;;8.68;;
67595;SDS011;54410;48.694;8.934;2022-08-19T12:18:42;9.82;;;7.40;;
67595;SDS011;54410;48.694;8.934;2022-08-19T12:21:11;8.18;;;7.38;;
67595;SDS011;54410;48.694;8.934;2022-08-19T12:23:38;7.80;;;6.95;;
67595;SDS011;54410;48.694;8.934;2022-08-19T12:26:05;7.32;;;6.63;;
67595;SDS011;54410;48.694;8.934;2022-08-19T12:28:31;8.20;;;5.97;;
67595;SDS011;54410;48.694;8.934;2022-08-19T12:30:57;7.18;;;5.68;;
67595;SDS011;54410;48.694;8.934;2022-08-19T12:33:23;6.53;;;5.93;;
67595;SDS011;54410;48.694;8.934;2022-08-19T12:35:53;7.35;;;6.68;;
67595;SDS011;54410;48.694;8.934;2022-08-19T12:38:19;6.75;;;6.07;;
67595;SDS011;54410;48.694;8.934;2022-08-19T12:40:49;6.78;;;6.20;;
67595;SDS011;54410;48.694;8.934;2022-08-19T12:43:16;6.43;;;5.82;;
67595;SDS011;54410;48.694;8.934;2022-08-19T12:45:43;9.63;;;6.22;;
67595;SDS011;54410;48.694;8.934;2022-08-19T12:48:10;7.47;;;5.93;;
67595;SDS011;54410;48.694;8.934;2022-08-19T12:50:38;6.05;;;5.63;;
67595;SDS011;54410;48.694;8.934;2022-08-19T12:53:04;6.10;;;5.60;;
67595;SDS011;54410;48.694;8.934;2022-08-19T12:55:30;6.22;;;5.63;;
67595;SDS011;54410;48.694;8.934;2022-08-19T12:57:56;6.20;;;5.32;;
67595;SDS011;54410;48.694;8.934;2022-08-19T13:00:22;7.75;;;5.45;;
67595;SDS011;54410;48.694;8.934;2022-08-19T13:02:49;6.88;;;5.32;;
67595;SDS011;54410;48.694;8.934;2022-08-19T13:05:18;7.32;;;5.78;;
67595;SDS011;54410;48.694;8.934;2022-08-19T13:07:45;6.80;;;5.20;;
67595;SDS011;54410;48.694;8.934;2022-08-19T13:10:12;5.68;;;4.78;;
67595;SDS011;54410;48.694;8.934;2022-08-19T13:12:40;5.53;;;5.00;;
67595;SDS011;54410;48.694;8.934;2022-08-19T13:15:06;6.07;;;5.47;;
67595;SDS011;54410;48.694;8.934;2022-08-19T13:17:33;6.97;;;4.93;;
67595;SDS011;54410;48.694;8.934;2022-08-19T13:19:59;6.60;;;5.75;;
67595;SDS011;54410;48.694;8.934;2022-08-19T13:22:25;6.38;;;5.45;;
67595;SDS011;54410;48.694;8.934;2022-08-19T13:24:52;5.68;;;4.90;;
67595;SDS011;54410;48.694;8.934;2022-08-19T13:27:17;7.47;;;5.68;;
67595;SDS011;54410;48.694;8.934;2022-08-19T13:29:43;8.30;;;6.82;;
67595;SDS011;54410;48.694;8.934;2022-08-19T13:32:28;7.38;;;6.60;;
67595;SDS011;54410;48.694;8.934;2022-08-19T13:35:13;7.55;;;6.85;;
67595;SDS011;54410;48.694;8.934;2022-08-19T13:37:40;7.05;;;6.43;;
67595;SDS011;54410;48.694;8.934;2022-08-19T13:40:10;7.38;;;6.68;;
67595;SDS011;54410;48.694;8.934;2022-08-19T13:42:41;7.82;;;7.15;;
67595;SDS011;54410;48.694;8.934;2022-08-19T13:45:07;7.70;;;7.10;;
67595;SDS011;54410;48.694;8.934;2022-08-19T13:47:34;7.90;;;7.10;;
67595;SDS011;54410;48.694;8.934;2022-08-19T13:50:08;8.45;;;7.63;;
67595;SDS011;54410;48.694;8.934;2022-08-19T13:52:36;7.07;;;6.55;;
67595;SDS011;54410;48.694;8.934;2022-08-19T13:55:03;7.85;;;7.15;;
67595;SDS011;54410;48.694;8.934;2022-08-19T13:57:29;8.30;;;7.05;;
67595;SDS011;54410;48.694;8.934;2022-08-19T13:59:55;7.90;;;7.20;;
67595;SDS011;54410;48.694;8.934;2022-08-19T14:02:23;7.78;;;6.97;;
67595;SDS011;54410;48.694;8.934;2022-08-19T14:04:48;7.63;;;6.95;;
67595;SDS011;54410;48.694;8.934;2022-08-19T14:07:14;8.25;;;7.15;;
67595;SDS011;54410;48.694;8.934;2022-08-19T14:09:39;7.85;;;7.18;;
67595;SDS011;54410;48.694;8.934;2022-08-19T14:12:05;8.82;;;7.25;;
67595;SDS011;54410;48.694;8.934;2022-08-19T14:14:31;8.05;;;7.30;;
67595;SDS011;54410;48.694;8.934;2022-08-19T14:16:57;8.18;;;6.93;;
67595;SDS011;54410;48.694;8.934;2022-08-19T14:19:24;8.15;;;7.38;;
67595;SDS011;54410;48.694;8.934;2022-08-19T14:21:49;8.13;;;7.40;;
67595;SDS011;54410;48.694;8.934;2022-08-19T14:24:15;7.95;;;7.18;;
67595;SDS011;54410;48.694;8.934;2022-08-19T14:26:41;9.07;;;7.03;;
67595;SDS011;54410;48.694;8.934;2022-08-19T14:29:07;7.63;;;6.88;;
67595;SDS011;54410;48.694;8.934;2022-08-19T14:31:33;7.95;;;7.13;;